sensor_id;sensor_type;location;lat;lon;timestamp;P1;P2;P0
71794;PMS7003;59641;45.188;5.712;2022-08-01T00:01:33;5.80;5.80;5.00
71794;PMS7003;59641;45.188;5.712;2022-08-01T00:03:59;4.75;4.75;4.00
71794;PMS7003;59641;45.188;5.712;2022-08-01T00:06:25;5.60;5.20;4.40
71794;PMS7003;59641;45.188;5.712;2022-08-01T00:08:50;6.00;6.00;5.00
71794;PMS7003;59641;45.188;5.712;2022-08-01T00:11:16;6.50;6.50;4.50
71794;PMS7003;59641;45.188;5.712;2022-08-01T00:13:41;5.75;5.00;4.00
71794;PMS7003;59641;45.188;5.712;2022-08-01T00:16:07;7.75;5.75;4.75
71794;PMS7003;59641;45.188;5.712;2022-08-01T00:18:32;7.25;6.75;6.00
71794;PMS7003;59641;45.188;5.712;2022-08-01T00:20:58;4.00;4.00;3.50
71794;PMS7003;59641;45.188;5.712;2022-08-01T00:23:23;8.00;8.00;5.50
71794;PMS7003;59641;45.188;5.712;2022-08-01T00:25:49;6.00;6.00;5.75
71794;PMS7003;59641;45.188;5.712;2022-08-01T00:28:14;5.50;5.50;4.75
71794;PMS7003;59641;45.188;5.712;2022-08-01T00:30:41;4.00;4.00;4.00
71794;PMS7003;59641;45.188;5.712;2022-08-01T00:33:06;5.00;5.00;4.00
71794;PMS7003;59641;45.188;5.712;2022-08-01T00:35:32;7.00;5.25;4.75
71794;PMS7003;59641;45.188;5.712;2022-08-01T00:37:57;6.00;5.75;5.00
71794;PMS7003;59641;45.188;5.712;2022-08-01T00:40:22;5.25;5.25;5.00
71794;PMS7003;59641;45.188;5.712;2022-08-01T00:42:48;5.00;5.00;4.25
71794;PMS7003;59641;45.188;5.712;2022-08-01T00:45:14;4.50;4.50;4.50
71794;PMS7003;59641;45.188;5.712;2022-08-01T00:47:39;5.00;5.00;4.00
71794;PMS7003;59641;45.188;5.712;2022-08-01T00:50:05;6.25;6.25;5.00
71794;PMS7003;59641;45.188;5.712;2022-08-01T00:52:31;6.25;5.00;5.00
71794;PMS7003;59641;45.188;5.712;2022-08-01T00:54:58;6.40;6.40;5.40
71794;PMS7003;59641;45.188;5.712;2022-08-01T00:57:24;5.75;4.00;4.00
71794;PMS7003;59641;45.188;5.712;2022-08-01T00:59:49;7.25;5.75;5.00
71794;PMS7003;59641;45.188;5.712;2022-08-01T01:02:16;5.40;5.40;5.00
71794;PMS7003;59641;45.188;5.712;2022-08-01T01:04:43;7.00;7.00;5.80
71794;PMS7003;59641;45.188;5.712;2022-08-01T01:10:09;4.00;4.00;4.00
71794;PMS7003;59641;45.188;5.712;2022-08-01T01:18:01;6.20;6.20;5.40
71794;PMS7003;59641;45.188;5.712;2022-08-01T01:20:47;8.25;7.75;6.00
71794;PMS7003;59641;45.188;5.712;2022-08-01T01:23:50;4.60;4.60;4.00
71794;PMS7003;59641;45.188;5.712;2022-08-01T01:29:44;5.00;5.00;5.00
71794;PMS7003;59641;45.188;5.712;2022-08-01T01:32:14;6.50;4.25;4.00
71794;PMS7003;59641;45.188;5.712;2022-08-01T01:34:45;4.20;4.00;3.20
71794;PMS7003;59641;45.188;5.712;2022-08-01T01:37:16;7.00;6.40;5.60
71794;PMS7003;59641;45.188;5.712;2022-08-01T01:39:44;5.00;5.00;4.50
71794;PMS7003;59641;45.188;5.712;2022-08-01T01:42:13;6.50;5.25;4.00
71794;PMS7003;59641;45.188;5.712;2022-08-01T01:44:41;6.60;5.80;4.80
71794;PMS7003;59641;45.188;5.712;2022-08-01T01:47:09;7.00;6.40;6.00
71794;PMS7003;59641;45.188;5.712;2022-08-01T01:49:37;5.50;5.00;5.00
71794;PMS7003;59641;45.188;5.712;2022-08-01T01:52:06;7.00;6.00;5.00
71794;PMS7003;59641;45.188;5.712;2022-08-01T01:54:35;8.20;6.80;5.40
71794;PMS7003;59641;45.188;5.712;2022-08-01T01:57:04;6.80;6.80;5.00
71794;PMS7003;59641;45.188;5.712;2022-08-01T01:59:31;5.00;5.00;4.00
71794;PMS7003;59641;45.188;5.712;2022-08-01T02:02:01;6.00;6.00;5.50
71794;PMS7003;59641;45.188;5.712;2022-08-01T02:04:29;8.60;6.80;5.00
71794;PMS7003;59641;45.188;5.712;2022-08-01T02:06:57;6.60;6.60;5.60
71794;PMS7003;59641;45.188;5.712;2022-08-01T02:09:23;6.25;6.25;6.00
71794;PMS7003;59641;45.188;5.712;2022-08-01T02:11:53;7.00;6.00;5.00
71794;PMS7003;59641;45.188;5.712;2022-08-01T02:14:20;6.40;5.80;5.00
71794;PMS7003;59641;45.188;5.712;2022-08-01T02:16:48;6.20;6.20;4.60
71794;PMS7003;59641;45.188;5.712;2022-08-01T02:19:18;8.50;6.00;6.00
71794;PMS7003;59641;45.188;5.712;2022-08-01T02:21:47;8.25;6.50;5.50
71794;PMS7003;59641;45.188;5.712;2022-08-01T02:27:11;7.40;6.20;5.80
71794;PMS7003;59641;45.188;5.712;2022-08-01T02:29:41;7.50;6.00;5.25
71794;PMS7003;59641;45.188;5.712;2022-08-01T02:32:20;7.00;7.00;5.25
71794;PMS7003;59641;45.188;5.712;2022-08-01T02:34:50;6.50;6.50;6.00
71794;PMS7003;59641;45.188;5.712;2022-08-01T02:37:20;8.50;8.00;6.00
71794;PMS7003;59641;45.188;5.712;2022-08-01T02:39:48;6.00;6.00;5.00
71794;PMS7003;59641;45.188;5.712;2022-08-01T02:42:17;8.00;7.00;7.00
71794;PMS7003;59641;45.188;5.712;2022-08-01T02:44:43;7.40;7.40;6.00
71794;PMS7003;59641;45.188;5.712;2022-08-01T02:47:11;7.50;7.00;6.00
71794;PMS7003;59641;45.188;5.712;2022-08-01T02:49:39;7.00;7.00;6.00
71794;PMS7003;59641;45.188;5.712;2022-08-01T02:52:09;7.00;7.00;6.00
71794;PMS7003;59641;45.188;5.712;2022-08-01T02:54:38;6.60;6.60;5.60
71794;PMS7003;59641;45.188;5.712;2022-08-01T02:57:07;6.75;6.75;5.25
71794;PMS7003;59641;45.188;5.712;2022-08-01T02:59:34;5.25;5.25;5.25
71794;PMS7003;59641;45.188;5.712;2022-08-01T03:02:03;6.00;6.00;5.00
71794;PMS7003;59641;45.188;5.712;2022-08-01T03:04:30;7.00;6.60;5.60
71794;PMS7003;59641;45.188;5.712;2022-08-01T03:06:58;6.40;6.40;6.00
71794;PMS7003;59641;45.188;5.712;2022-08-01T03:09:27;6.25;6.00;4.75
71794;PMS7003;59641;45.188;5.712;2022-08-01T03:11:57;7.75;6.00;5.50
71794;PMS7003;59641;45.188;5.712;2022-08-01T03:14:26;5.75;5.75;5.50
71794;PMS7003;59641;45.188;5.712;2022-08-01T03:16:55;6.00;6.00;5.00
71794;PMS7003;59641;45.188;5.712;2022-08-01T03:19:23;2.25;2.25;2.00
71794;PMS7003;59641;45.188;5.712;2022-08-01T03:21:51;6.25;6.25;5.00
71794;PMS7003;59641;45.188;5.712;2022-08-01T03:24:17;6.80;6.80;5.60
71794;PMS7003;59641;45.188;5.712;2022-08-01T03:26:44;7.00;7.00;5.50
71794;PMS7003;59641;45.188;5.712;2022-08-01T03:29:12;7.50;7.00;6.00
71794;PMS7003;59641;45.188;5.712;2022-08-01T03:31:42;8.40;8.40;7.00
71794;PMS7003;59641;45.188;5.712;2022-08-01T03:34:09;8.00;8.00;6.00
71794;PMS7003;59641;45.188;5.712;2022-08-01T03:36:37;8.00;6.25;6.00
71794;PMS7003;59641;45.188;5.712;2022-08-01T03:39:12;8.50;8.50;7.00
71794;PMS7003;59641;45.188;5.712;2022-08-01T03:41:41;8.00;8.00;7.00
71794;PMS7003;59641;45.188;5.712;2022-08-01T03:44:15;9.40;7.00;7.00
71794;PMS7003;59641;45.188;5.712;2022-08-01T03:46:46;8.80;8.80;7.00
71794;PMS7003;59641;45.188;5.712;2022-08-01T03:49:21;7.50;7.25;6.00
71794;PMS7003;59641;45.188;5.712;2022-08-01T03:51:50;7.25;7.25;6.25
71794;PMS7003;59641;45.188;5.712;2022-08-01T03:54:20;8.60;6.40;4.20
71794;PMS7003;59641;45.188;5.712;2022-08-01T03:56:48;8.25;7.75;6.50
71794;PMS7003;59641;45.188;5.712;2022-08-01T03:59:16;7.00;7.00;7.00
71794;PMS7003;59641;45.188;5.712;2022-08-01T04:01:44;6.75;6.25;6.00
71794;PMS7003;59641;45.188;5.712;2022-08-01T04:04:11;8.75;8.75;7.00
71794;PMS7003;59641;45.188;5.712;2022-08-01T04:06:37;9.25;8.50;7.25
71794;PMS7003;59641;45.188;5.712;2022-08-01T04:09:06;8.00;8.00;6.50
71794;PMS7003;59641;45.188;5.712;2022-08-01T04:11:32;8.00;8.00;7.25
71794;PMS7003;59641;45.188;5.712;2022-08-01T04:13:58;7.00;7.00;5.25
71794;PMS7003;59641;45.188;5.712;2022-08-01T04:16:23;7.00;7.00;6.00
71794;PMS7003;59641;45.188;5.712;2022-08-01T04:18:49;7.75;7.50;7.00
71794;PMS7003;59641;45.188;5.712;2022-08-01T04:21:14;9.25;9.25;8.00
71794;PMS7003;59641;45.188;5.712;2022-08-01T04:23:43;6.75;6.75;5.00
71794;PMS7003;59641;45.188;5.712;2022-08-01T04:26:11;9.50;9.50;8.00
71794;PMS7003;59641;45.188;5.712;2022-08-01T04:28:39;6.00;6.00;5.25
71794;PMS7003;59641;45.188;5.712;2022-08-01T04:31:08;9.25;9.25;8.00
71794;PMS7003;59641;45.188;5.712;2022-08-01T04:33:34;8.75;8.75;8.00
71794;PMS7003;59641;45.188;5.712;2022-08-01T04:36:02;8.50;8.00;6.50
71794;PMS7003;59641;45.188;5.712;2022-08-01T04:38:32;8.00;8.00;7.00
71794;PMS7003;59641;45.188;5.712;2022-08-01T04:40:59;9.75;8.25;7.00
71794;PMS7003;59641;45.188;5.712;2022-08-01T04:43:27;9.75;9.50;8.00
71794;PMS7003;59641;45.188;5.712;2022-08-01T04:45:52;9.00;9.00;7.50
71794;PMS7003;59641;45.188;5.712;2022-08-01T04:48:20;8.25;8.25;7.75
71794;PMS7003;59641;45.188;5.712;2022-08-01T04:50:47;8.00;8.00;7.00
71794;PMS7003;59641;45.188;5.712;2022-08-01T04:53:13;9.75;9.75;8.00
71794;PMS7003;59641;45.188;5.712;2022-08-01T04:55:41;7.80;7.80;7.00
71794;PMS7003;59641;45.188;5.712;2022-08-01T04:58:08;8.75;8.75;7.00
71794;PMS7003;59641;45.188;5.712;2022-08-01T05:00:35;7.75;7.75;7.00
71794;PMS7003;59641;45.188;5.712;2022-08-01T05:03:00;10.75;9.50;7.75
71794;PMS7003;59641;45.188;5.712;2022-08-01T05:05:25;10.00;10.00;7.50
71794;PMS7003;59641;45.188;5.712;2022-08-01T05:07:51;8.75;8.75;7.00
71794;PMS7003;59641;45.188;5.712;2022-08-01T05:10:16;12.75;12.50;10.25
71794;PMS7003;59641;45.188;5.712;2022-08-01T05:12:42;10.50;9.25;7.25
71794;PMS7003;59641;45.188;5.712;2022-08-01T05:15:07;9.25;7.00;5.50
71794;PMS7003;59641;45.188;5.712;2022-08-01T05:17:34;8.60;8.60;7.80
71794;PMS7003;59641;45.188;5.712;2022-08-01T05:19:59;10.00;9.50;8.00
71794;PMS7003;59641;45.188;5.712;2022-08-01T05:22:24;7.50;7.50;7.00
71794;PMS7003;59641;45.188;5.712;2022-08-01T05:24:50;13.75;10.75;9.00
71794;PMS7003;59641;45.188;5.712;2022-08-01T05:27:17;12.75;11.75;10.00
71794;PMS7003;59641;45.188;5.712;2022-08-01T05:29:43;11.25;10.75;9.25
71794;PMS7003;59641;45.188;5.712;2022-08-01T05:32:08;14.25;11.75;9.50
71794;PMS7003;59641;45.188;5.712;2022-08-01T05:34:34;12.00;12.00;10.00
71794;PMS7003;59641;45.188;5.712;2022-08-01T05:37:00;11.25;11.00;9.00
71794;PMS7003;59641;45.188;5.712;2022-08-01T05:39:25;10.75;8.50;7.00
71794;PMS7003;59641;45.188;5.712;2022-08-01T05:41:51;11.25;11.25;7.75
71794;PMS7003;59641;45.188;5.712;2022-08-01T05:44:16;12.25;9.75;8.00
71794;PMS7003;59641;45.188;5.712;2022-08-01T05:46:42;8.00;8.00;7.00
71794;PMS7003;59641;45.188;5.712;2022-08-01T05:49:07;9.00;9.00;7.50
71794;PMS7003;59641;45.188;5.712;2022-08-01T05:51:33;9.75;9.00;7.00
71794;PMS7003;59641;45.188;5.712;2022-08-01T05:53:58;11.00;10.50;8.25
71794;PMS7003;59641;45.188;5.712;2022-08-01T05:56:24;14.00;12.50;10.50
71794;PMS7003;59641;45.188;5.712;2022-08-01T05:58:50;9.00;9.00;8.00
71794;PMS7003;59641;45.188;5.712;2022-08-01T06:01:16;12.25;11.00;10.00
71794;PMS7003;59641;45.188;5.712;2022-08-01T06:03:43;9.50;6.75;6.00
71794;PMS7003;59641;45.188;5.712;2022-08-01T06:06:08;11.50;10.00;8.50
71794;PMS7003;59641;45.188;5.712;2022-08-01T06:08:34;10.00;10.00;9.00
71794;PMS7003;59641;45.188;5.712;2022-08-01T06:10:59;13.00;10.50;8.00
71794;PMS7003;59641;45.188;5.712;2022-08-01T06:13:24;13.25;12.25;10.75
71794;PMS7003;59641;45.188;5.712;2022-08-01T06:15:50;8.25;8.25;8.25
71794;PMS7003;59641;45.188;5.712;2022-08-01T06:18:16;12.50;12.00;9.50
71794;PMS7003;59641;45.188;5.712;2022-08-01T06:20:42;11.00;11.00;9.75
71794;PMS7003;59641;45.188;5.712;2022-08-01T06:23:08;11.00;10.50;8.50
71794;PMS7003;59641;45.188;5.712;2022-08-01T06:25:34;11.00;10.25;10.00
71794;PMS7003;59641;45.188;5.712;2022-08-01T06:27:59;12.75;12.75;10.25
71794;PMS7003;59641;45.188;5.712;2022-08-01T06:30:25;10.50;10.50;8.00
71794;PMS7003;59641;45.188;5.712;2022-08-01T06:32:51;10.00;10.00;9.00
71794;PMS7003;59641;45.188;5.712;2022-08-01T06:35:17;10.25;9.75;9.25
71794;PMS7003;59641;45.188;5.712;2022-08-01T06:37:42;10.50;9.00;8.50
71794;PMS7003;59641;45.188;5.712;2022-08-01T06:40:10;23.67;23.33;20.00
71794;PMS7003;59641;45.188;5.712;2022-08-01T06:42:37;9.25;9.00;8.00
71794;PMS7003;59641;45.188;5.712;2022-08-01T06:45:09;11.25;11.25;10.00
71794;PMS7003;59641;45.188;5.712;2022-08-01T06:47:36;12.00;11.25;9.00
71794;PMS7003;59641;45.188;5.712;2022-08-01T06:50:05;12.25;12.00;9.25
71794;PMS7003;59641;45.188;5.712;2022-08-01T06:52:32;10.75;10.75;8.50
71794;PMS7003;59641;45.188;5.712;2022-08-01T06:54:58;12.25;11.25;10.00
71794;PMS7003;59641;45.188;5.712;2022-08-01T06:57:24;11.00;10.50;8.50
71794;PMS7003;59641;45.188;5.712;2022-08-01T06:59:49;9.00;9.00;8.00
71794;PMS7003;59641;45.188;5.712;2022-08-01T07:02:15;11.00;10.75;9.00
71794;PMS7003;59641;45.188;5.712;2022-08-01T07:04:41;9.75;9.75;8.25
71794;PMS7003;59641;45.188;5.712;2022-08-01T07:07:06;11.00;10.25;9.00
71794;PMS7003;59641;45.188;5.712;2022-08-01T07:09:31;12.25;10.00;8.00
71794;PMS7003;59641;45.188;5.712;2022-08-01T07:11:57;9.25;9.25;7.50
71794;PMS7003;59641;45.188;5.712;2022-08-01T07:14:22;11.00;9.00;8.00
71794;PMS7003;59641;45.188;5.712;2022-08-01T07:16:49;10.50;10.50;8.25
71794;PMS7003;59641;45.188;5.712;2022-08-01T07:19:15;9.00;8.60;7.60
71794;PMS7003;59641;45.188;5.712;2022-08-01T07:21:41;11.00;10.50;9.75
71794;PMS7003;59641;45.188;5.712;2022-08-01T07:24:07;10.00;10.00;8.00
71794;PMS7003;59641;45.188;5.712;2022-08-01T07:26:34;10.50;9.50;8.25
71794;PMS7003;59641;45.188;5.712;2022-08-01T07:28:59;10.00;10.00;9.00
71794;PMS7003;59641;45.188;5.712;2022-08-01T07:31:25;12.25;10.75;9.75
71794;PMS7003;59641;45.188;5.712;2022-08-01T07:33:50;10.75;10.75;8.75
71794;PMS7003;59641;45.188;5.712;2022-08-01T07:36:16;11.00;11.00;9.25
71794;PMS7003;59641;45.188;5.712;2022-08-01T07:38:42;9.00;9.00;8.00
71794;PMS7003;59641;45.188;5.712;2022-08-01T07:41:08;11.50;11.50;10.00
71794;PMS7003;59641;45.188;5.712;2022-08-01T07:43:33;9.75;9.50;8.00
71794;PMS7003;59641;45.188;5.712;2022-08-01T07:46:00;12.00;12.00;9.50
71794;PMS7003;59641;45.188;5.712;2022-08-01T07:48:28;11.75;10.25;9.25
71794;PMS7003;59641;45.188;5.712;2022-08-01T07:50:54;10.50;10.50;9.00
71794;PMS7003;59641;45.188;5.712;2022-08-01T07:53:19;10.25;10.25;9.25
71794;PMS7003;59641;45.188;5.712;2022-08-01T07:55:44;11.75;11.00;10.00
71794;PMS7003;59641;45.188;5.712;2022-08-01T07:58:10;10.75;10.75;9.25
71794;PMS7003;59641;45.188;5.712;2022-08-01T08:00:35;12.00;12.00;10.00
71794;PMS7003;59641;45.188;5.712;2022-08-01T08:03:00;10.75;10.75;9.50
71794;PMS7003;59641;45.188;5.712;2022-08-01T08:05:26;12.50;11.25;8.75
71794;PMS7003;59641;45.188;5.712;2022-08-01T08:07:52;13.00;12.00;10.00
71794;PMS7003;59641;45.188;5.712;2022-08-01T08:10:18;9.50;9.50;8.25
71794;PMS7003;59641;45.188;5.712;2022-08-01T08:12:43;11.00;10.00;9.00
71794;PMS7003;59641;45.188;5.712;2022-08-01T08:15:11;10.75;9.75;9.00
71794;PMS7003;59641;45.188;5.712;2022-08-01T08:17:36;10.00;10.00;8.00
71794;PMS7003;59641;45.188;5.712;2022-08-01T08:20:02;12.75;12.00;9.75
71794;PMS7003;59641;45.188;5.712;2022-08-01T08:22:29;10.00;10.00;9.00
71794;PMS7003;59641;45.188;5.712;2022-08-01T08:24:54;13.50;12.75;10.25
71794;PMS7003;59641;45.188;5.712;2022-08-01T08:27:20;10.00;10.00;8.00
71794;PMS7003;59641;45.188;5.712;2022-08-01T08:29:45;10.00;10.00;8.00
71794;PMS7003;59641;45.188;5.712;2022-08-01T08:32:11;11.25;11.00;10.00
71794;PMS7003;59641;45.188;5.712;2022-08-01T08:34:37;12.75;12.75;10.25
71794;PMS7003;59641;45.188;5.712;2022-08-01T08:37:04;12.00;12.00;9.25
71794;PMS7003;59641;45.188;5.712;2022-08-01T08:39:29;12.50;12.50;11.00
71794;PMS7003;59641;45.188;5.712;2022-08-01T08:41:56;10.25;10.25;9.00
71794;PMS7003;59641;45.188;5.712;2022-08-01T08:44:22;12.25;12.25;10.00
71794;PMS7003;59641;45.188;5.712;2022-08-01T08:46:49;12.75;12.25;10.50
71794;PMS7003;59641;45.188;5.712;2022-08-01T08:49:21;13.25;11.00;10.00
71794;PMS7003;59641;45.188;5.712;2022-08-01T08:51:49;11.00;11.00;9.75
71794;PMS7003;59641;45.188;5.712;2022-08-01T08:54:17;12.50;11.00;9.50
71794;PMS7003;59641;45.188;5.712;2022-08-01T08:56:45;12.50;11.50;10.50
71794;PMS7003;59641;45.188;5.712;2022-08-01T08:59:12;12.75;12.75;10.50
71794;PMS7003;59641;45.188;5.712;2022-08-01T09:01:39;10.75;9.00;8.00
71794;PMS7003;59641;45.188;5.712;2022-08-01T09:04:05;13.00;11.00;9.00
71794;PMS7003;59641;45.188;5.712;2022-08-01T09:06:31;11.75;11.75;10.25
71794;PMS7003;59641;45.188;5.712;2022-08-01T09:08:57;13.25;13.25;9.25
71794;PMS7003;59641;45.188;5.712;2022-08-01T09:11:23;11.00;11.00;9.00
71794;PMS7003;59641;45.188;5.712;2022-08-01T09:14:02;10.25;10.25;9.00
71794;PMS7003;59641;45.188;5.712;2022-08-01T09:16:43;12.00;12.00;10.25
71794;PMS7003;59641;45.188;5.712;2022-08-01T09:19:13;12.25;12.25;9.75
71794;PMS7003;59641;45.188;5.712;2022-08-01T09:21:54;12.25;12.00;9.75
71794;PMS7003;59641;45.188;5.712;2022-08-01T09:24:21;16.50;14.50;13.00
71794;PMS7003;59641;45.188;5.712;2022-08-01T09:26:47;10.75;10.25;9.00
71794;PMS7003;59641;45.188;5.712;2022-08-01T09:29:20;10.75;9.75;8.75
71794;PMS7003;59641;45.188;5.712;2022-08-01T09:31:47;12.00;12.00;9.75
71794;PMS7003;59641;45.188;5.712;2022-08-01T09:34:14;9.50;9.50;8.50
71794;PMS7003;59641;45.188;5.712;2022-08-01T09:39:13;10.00;8.50;8.25
71794;PMS7003;59641;45.188;5.712;2022-08-01T09:41:40;8.00;8.00;7.75
71794;PMS7003;59641;45.188;5.712;2022-08-01T09:44:06;11.75;11.00;9.00
71794;PMS7003;59641;45.188;5.712;2022-08-01T09:46:31;10.00;10.00;8.75
71794;PMS7003;59641;45.188;5.712;2022-08-01T09:49:02;12.00;12.00;10.00
71794;PMS7003;59641;45.188;5.712;2022-08-01T09:51:29;10.75;9.75;7.75
71794;PMS7003;59641;45.188;5.712;2022-08-01T09:53:59;7.25;7.25;7.00
71794;PMS7003;59641;45.188;5.712;2022-08-01T09:56:25;7.60;7.60;6.40
71794;PMS7003;59641;45.188;5.712;2022-08-01T09:58:58;10.00;9.75;8.25
71794;PMS7003;59641;45.188;5.712;2022-08-01T10:01:24;9.40;9.40;7.80
71794;PMS7003;59641;45.188;5.712;2022-08-01T10:04:07;8.75;8.75;7.75
71794;PMS7003;59641;45.188;5.712;2022-08-01T10:06:35;10.20;9.40;8.00
71794;PMS7003;59641;45.188;5.712;2022-08-01T10:09:01;10.40;9.00;7.20
71794;PMS7003;59641;45.188;5.712;2022-08-01T10:11:28;10.75;8.75;7.00
71794;PMS7003;59641;45.188;5.712;2022-08-01T10:13:54;6.00;6.00;4.50
71794;PMS7003;59641;45.188;5.712;2022-08-01T10:16:22;9.60;9.60;7.60
71794;PMS7003;59641;45.188;5.712;2022-08-01T10:18:50;8.20;8.20;7.00
71794;PMS7003;59641;45.188;5.712;2022-08-01T10:21:18;9.25;9.25;7.25
71794;PMS7003;59641;45.188;5.712;2022-08-01T10:23:44;8.75;8.00;7.00
71794;PMS7003;59641;45.188;5.712;2022-08-01T10:26:10;8.20;8.20;7.00
71794;PMS7003;59641;45.188;5.712;2022-08-01T10:28:37;8.75;7.50;7.50
71794;PMS7003;59641;45.188;5.712;2022-08-01T10:31:03;9.25;8.75;7.75
71794;PMS7003;59641;45.188;5.712;2022-08-01T10:33:29;10.50;9.00;8.50
71794;PMS7003;59641;45.188;5.712;2022-08-01T10:35:55;7.00;7.00;6.00
71794;PMS7003;59641;45.188;5.712;2022-08-01T10:38:22;9.20;8.00;6.00
71794;PMS7003;59641;45.188;5.712;2022-08-01T10:40:50;10.00;8.20;6.60
71794;PMS7003;59641;45.188;5.712;2022-08-01T10:43:18;8.80;8.80;7.00
71794;PMS7003;59641;45.188;5.712;2022-08-01T10:45:43;10.00;10.00;7.75
71794;PMS7003;59641;45.188;5.712;2022-08-01T10:48:11;6.75;6.75;5.75
71794;PMS7003;59641;45.188;5.712;2022-08-01T10:51:00;5.75;5.75;5.25
71794;PMS7003;59641;45.188;5.712;2022-08-01T10:53:28;8.75;7.75;6.00
71794;PMS7003;59641;45.188;5.712;2022-08-01T11:08:58;7.25;7.25;6.25
71794;PMS7003;59641;45.188;5.712;2022-08-01T11:12:04;5.00;5.00;4.25
71794;PMS7003;59641;45.188;5.712;2022-08-01T11:14:34;6.00;6.00;5.00
71794;PMS7003;59641;45.188;5.712;2022-08-01T11:17:32;5.40;5.40;4.40
71794;PMS7003;59641;45.188;5.712;2022-08-01T11:22:44;6.80;4.80;4.00
71794;PMS7003;59641;45.188;5.712;2022-08-01T11:25:24;6.75;5.75;4.25
71794;PMS7003;59641;45.188;5.712;2022-08-01T11:30:49;5.40;5.00;4.00
71794;PMS7003;59641;45.188;5.712;2022-08-01T11:33:17;5.00;5.00;4.50
71794;PMS7003;59641;45.188;5.712;2022-08-01T11:36:29;6.00;6.00;4.00
71794;PMS7003;59641;45.188;5.712;2022-08-01T11:38:37;8.00;6.60;6.00
71794;PMS7003;59641;45.188;5.712;2022-08-01T11:41:12;4.20;4.20;3.60
71794;PMS7003;59641;45.188;5.712;2022-08-01T11:49:30;6.80;6.00;4.60
71794;PMS7003;59641;45.188;5.712;2022-08-01T11:54:30;4.60;4.00;3.80
71794;PMS7003;59641;45.188;5.712;2022-08-01T11:56:59;6.00;5.75;4.00
71794;PMS7003;59641;45.188;5.712;2022-08-01T11:59:26;6.40;6.40;6.00
71794;PMS7003;59641;45.188;5.712;2022-08-01T12:01:51;4.75;4.75;4.25
71794;PMS7003;59641;45.188;5.712;2022-08-01T12:04:17;7.25;5.00;5.00
71794;PMS7003;59641;45.188;5.712;2022-08-01T12:06:43;5.00;5.00;4.75
71794;PMS7003;59641;45.188;5.712;2022-08-01T12:09:15;5.00;5.00;4.50
71794;PMS7003;59641;45.188;5.712;2022-08-01T12:11:45;5.80;5.80;4.40
71794;PMS7003;59641;45.188;5.712;2022-08-01T12:14:20;6.50;6.00;4.75
71794;PMS7003;59641;45.188;5.712;2022-08-01T12:16:53;8.25;6.50;5.00
71794;PMS7003;59641;45.188;5.712;2022-08-01T12:19:22;6.00;6.00;4.60
71794;PMS7003;59641;45.188;5.712;2022-08-01T12:22:08;6.00;6.00;4.00
71794;PMS7003;59641;45.188;5.712;2022-08-01T12:24:35;4.00;4.00;3.60
71794;PMS7003;59641;45.188;5.712;2022-08-01T12:27:03;6.00;6.00;4.75
71794;PMS7003;59641;45.188;5.712;2022-08-01T12:31:58;5.60;5.60;4.20
71794;PMS7003;59641;45.188;5.712;2022-08-01T12:34:25;4.50;4.50;3.75
71794;PMS7003;59641;45.188;5.712;2022-08-01T12:36:54;5.50;5.25;4.75
71794;PMS7003;59641;45.188;5.712;2022-08-01T12:39:20;5.00;5.00;3.80
71794;PMS7003;59641;45.188;5.712;2022-08-01T12:41:45;4.00;4.00;4.00
71794;PMS7003;59641;45.188;5.712;2022-08-01T12:44:14;5.00;5.00;5.00
71794;PMS7003;59641;45.188;5.712;2022-08-01T12:46:40;6.75;4.00;4.00
71794;PMS7003;59641;45.188;5.712;2022-08-01T12:49:07;5.25;3.50;3.50
71794;PMS7003;59641;45.188;5.712;2022-08-01T12:51:32;5.75;5.75;5.00
71794;PMS7003;59641;45.188;5.712;2022-08-01T12:53:58;5.25;4.50;4.50
71794;PMS7003;59641;45.188;5.712;2022-08-01T12:56:33;4.20;4.00;3.60
71794;PMS7003;59641;45.188;5.712;2022-08-01T12:58:59;6.60;6.60;6.00
71794;PMS7003;59641;45.188;5.712;2022-08-01T13:01:26;7.40;5.80;5.00
71794;PMS7003;59641;45.188;5.712;2022-08-01T13:03:59;3.25;3.25;3.25
71794;PMS7003;59641;45.188;5.712;2022-08-01T13:06:28;5.00;5.00;4.00
71794;PMS7003;59641;45.188;5.712;2022-08-01T13:08:54;5.20;5.20;5.00
71794;PMS7003;59641;45.188;5.712;2022-08-01T13:11:19;4.00;3.75;2.75
71794;PMS7003;59641;45.188;5.712;2022-08-01T13:13:47;5.25;5.25;4.75
71794;PMS7003;59641;45.188;5.712;2022-08-01T13:16:18;5.00;4.00;3.00
71794;PMS7003;59641;45.188;5.712;2022-08-01T13:18:48;5.00;4.75;3.00
71794;PMS7003;59641;45.188;5.712;2022-08-01T13:21:16;5.00;4.60;3.20
71794;PMS7003;59641;45.188;5.712;2022-08-01T13:24:04;4.00;4.00;4.00
71794;PMS7003;59641;45.188;5.712;2022-08-01T13:26:42;3.50;3.50;3.00
71794;PMS7003;59641;45.188;5.712;2022-08-01T13:29:12;3.80;3.80;3.80
71794;PMS7003;59641;45.188;5.712;2022-08-01T13:31:39;3.00;3.00;2.60
71794;PMS7003;59641;45.188;5.712;2022-08-01T13:34:06;4.25;3.00;2.50
71794;PMS7003;59641;45.188;5.712;2022-08-01T13:36:31;5.00;3.75;3.00
71794;PMS7003;59641;45.188;5.712;2022-08-01T13:38:57;4.75;4.75;3.75
71794;PMS7003;59641;45.188;5.712;2022-08-01T13:41:42;3.00;3.00;2.20
71794;PMS7003;59641;45.188;5.712;2022-08-01T13:44:08;5.25;5.00;3.75
71794;PMS7003;59641;45.188;5.712;2022-08-01T13:46:35;4.00;4.00;3.50
71794;PMS7003;59641;45.188;5.712;2022-08-01T13:49:02;3.20;3.20;2.60
71794;PMS7003;59641;45.188;5.712;2022-08-01T13:51:28;3.00;3.00;3.00
71794;PMS7003;59641;45.188;5.712;2022-08-01T13:53:53;5.25;4.25;4.00
71794;PMS7003;59641;45.188;5.712;2022-08-01T13:56:19;2.00;2.00;2.00
71794;PMS7003;59641;45.188;5.712;2022-08-01T13:58:45;2.25;2.25;2.00
71794;PMS7003;59641;45.188;5.712;2022-08-01T14:01:10;4.00;4.00;3.00
71794;PMS7003;59641;45.188;5.712;2022-08-01T14:03:36;3.25;3.00;3.00
71794;PMS7003;59641;45.188;5.712;2022-08-01T14:06:01;4.00;3.00;3.00
71794;PMS7003;59641;45.188;5.712;2022-08-01T14:08:27;2.25;2.25;2.00
71794;PMS7003;59641;45.188;5.712;2022-08-01T14:10:53;3.00;3.00;2.00
71794;PMS7003;59641;45.188;5.712;2022-08-01T14:13:21;3.20;3.20;3.00
71794;PMS7003;59641;45.188;5.712;2022-08-01T14:15:47;4.75;4.75;4.25
71794;PMS7003;59641;45.188;5.712;2022-08-01T14:18:12;3.50;3.50;3.00
71794;PMS7003;59641;45.188;5.712;2022-08-01T14:20:38;4.00;3.00;2.75
71794;PMS7003;59641;45.188;5.712;2022-08-01T14:23:03;4.00;3.00;3.00
71794;PMS7003;59641;45.188;5.712;2022-08-01T14:25:29;3.50;3.00;2.00
71794;PMS7003;59641;45.188;5.712;2022-08-01T14:27:54;3.25;3.25;2.25
71794;PMS7003;59641;45.188;5.712;2022-08-01T14:30:20;5.75;4.25;3.25
71794;PMS7003;59641;45.188;5.712;2022-08-01T14:32:45;3.00;3.00;2.00
71794;PMS7003;59641;45.188;5.712;2022-08-01T14:35:11;3.75;3.75;2.50
71794;PMS7003;59641;45.188;5.712;2022-08-01T14:37:36;3.00;3.00;2.00
71794;PMS7003;59641;45.188;5.712;2022-08-01T14:40:02;3.00;3.00;3.00
71794;PMS7003;59641;45.188;5.712;2022-08-01T14:42:33;3.00;3.00;2.00
71794;PMS7003;59641;45.188;5.712;2022-08-01T14:44:59;4.00;3.00;2.00
71794;PMS7003;59641;45.188;5.712;2022-08-01T14:47:25;2.00;2.00;1.25
71794;PMS7003;59641;45.188;5.712;2022-08-01T14:49:50;2.00;2.00;1.75
71794;PMS7003;59641;45.188;5.712;2022-08-01T14:52:16;3.00;3.00;2.00
71794;PMS7003;59641;45.188;5.712;2022-08-01T14:54:42;2.00;2.00;2.00
71794;PMS7003;59641;45.188;5.712;2022-08-01T14:57:07;2.00;2.00;1.25
71794;PMS7003;59641;45.188;5.712;2022-08-01T14:59:33;2.00;2.00;1.00
71794;PMS7003;59641;45.188;5.712;2022-08-01T15:01:58;3.00;2.25;2.00
71794;PMS7003;59641;45.188;5.712;2022-08-01T15:04:24;1.25;1.25;1.25